Dusseldorf

Airport
ICAO code: 
EDDL
Summary
ICAO Region: 
EUR
Territory: 
Location: 
Düsseldorf,
Elevation: 
147 ft
Coordinates: 
Aerial View: 
51° 17' 22.204" N, 6° 46' 0.408" E
Metar
Observation
EDDL 201020Z 31012KT 9999 FEW018 04/M01 Q1027 NOSIG
Station
Duesseldorf
Date/Time
2022-01-20 10:20:00
Wind direction
310°
Wind speed
12 kts
Lowest cloud amount
few clouds
Temperature
4°C
Dew point
-1°C
Humidity
69%
QNH
1027 hPa
Weather condition
n/a

Description

International airport serving Düsseldorf.

Climatology

Temperate Marine climate/Oceanic climate (Köppen climate classification Cfb) - Moderately cool summer and comparatively warm winter.

Runways

Designator Length Width Surface Rops
05L/23R 2700 45 CON Yes/Yes
05R/23L 3000 45 CON Yes/Yes
Airport map: 
Aerial View: 

Accidents and Serious Incidents at or in the vicinity of EDDL

SKYbrary Partners:

Safety knowledge contributed by: